Aviation Digital Data Service (ADDS)

Output produced by METARs form (2353 UTC 19 October 2017)
found at http://aviationweather.gov/adds/metars/
 
EDDP 192350Z 16008KT CAVOK 12/09 Q1013 NOSIG